Time;durP1;ratioP1;P1;durP2;ratioP2;P2;SDS_P1;SDS_P2;PMS_P1;PMS_P2;Temp;Humidity;BMP_temperature;BMP_pressure;BME280_temperature;BME280_humidity;BME280_pressure;Samples;Min_cycle;Max_cycle;Signal;HPM_P1;HPM_P2
2023/06/11 00:00:16;;;;;;;;;;;;;;;20.80;61.45;98960.09;3169527;28;19927;-66
2023/06/11 00:01:47;;;;;;;;;;;;;;;20.75;61.79;98957.06;3168361;28;19928;-66
2023/06/11 00:03:21;;;;;;;;;;;;;;;20.70;62.01;98961.16;3171575;28;20497;-68
2023/06/11 00:04:51;;;;;;;;;;;;;;;20.65;62.17;98972.22;3172362;28;19924;-69
2023/06/11 00:06:23;;;;;;;;;;;;;;;20.64;62.24;98970.53;3171832;28;19924;-68
2023/06/11 00:07:56;;;;;;;;;;;;;;;20.61;62.23;98966.38;3162569;28;19938;-68
2023/06/11 00:09:27;;;;;;;;;;;;;;;20.58;62.40;98969.34;3172011;28;20328;-67
2023/06/11 00:11:00;;;;;;;;;;;;;;;20.53;62.67;98960.19;3171937;28;20447;-67
2023/06/11 00:12:32;;;;;;;;;;;;;;;20.48;62.96;98963.28;3172029;28;19924;-66
2023/06/11 00:14:04;;;;;;;;;;;;;;;20.42;63.02;98963.91;3171914;28;19931;-69
2023/06/11 00:15:35;;;;;;;;;;;;;;;20.38;63.18;98959.88;3171968;28;20036;-69
2023/06/11 00:17:07;;;;;;;;;;;;;;;20.35;63.21;98961.03;3172065;28;19987;-68
2023/06/11 00:18:40;;;;;;;;;;;;;;;20.32;63.34;98961.34;3171928;28;19931;-68
2023/06/11 00:20:12;;;;;;;;;;;;;;;20.28;63.64;98959.97;3171939;28;19932;-67
2023/06/11 00:21:44;;;;;;;;;;;;;;;20.26;63.70;98958.44;3171973;28;20319;-67
2023/06/11 00:23:16;;;;;;;;;;;;;;;20.24;63.62;98963.91;3165828;28;19971;-67
2023/06/11 00:24:47;;;;;;;;;;;;;;;20.25;63.53;98960.28;3171809;28;19993;-68
2023/06/11 00:26:20;;;;;;;;;;;;;;;20.25;63.65;98959.44;3171897;28;19942;-68
2023/06/11 00:27:52;;;;;;;;;;;;;;;20.25;63.61;98959.44;3171970;28;19985;-68
2023/06/11 00:29:22;;;;;;;;;;;;;;;20.27;63.61;98965.41;3171868;28;19931;-69
2023/06/11 00:30:54;;;;;;;;;;;;;;;20.26;63.45;98961.09;3168780;28;19939;-66
2023/06/11 00:32:25;;;;;;;;;;;;;;;20.25;63.61;98954.16;3160865;28;19963;-67
2023/06/11 00:33:57;;;;;;;;;;;;;;;20.22;63.50;98963.22;3171900;28;19923;-66
2023/06/11 00:35:28;;;;;;;;;;;;;;;20.20;63.67;98963.38;3171564;28;19953;-66
2023/06/11 00:37:00;;;;;;;;;;;;;;;20.19;63.67;98961.69;3169611;28;19988;-67
2023/06/11 00:38:33;;;;;;;;;;;;;;;20.17;63.66;98960.19;3167311;28;19971;-67
2023/06/11 00:40:05;;;;;;;;;;;;;;;20.16;63.64;98961.19;3170779;28;19961;-67
2023/06/11 00:41:37;;;;;;;;;;;;;;;20.18;63.52;98959.22;3171069;28;19938;-67
2023/06/11 00:43:09;;;;;;;;;;;;;;;20.20;63.34;98962.53;3171297;28;20312;-67
2023/06/11 00:44:41;;;;;;;;;;;;;;;20.19;63.61;98958.22;3171334;28;20370;-67
2023/06/11 00:46:12;;;;;;;;;;;;;;;20.17;63.71;98955.75;3171706;28;19924;-67
2023/06/11 00:47:43;;;;;;;;;;;;;;;20.17;63.70;98962.84;3171208;28;20015;-67
2023/06/11 00:49:15;;;;;;;;;;;;;;;20.17;63.60;98957.53;3171685;28;19923;-67
2023/06/11 00:50:47;;;;;;;;;;;;;;;20.15;63.48;98963.00;3171633;28;19935;-67
2023/06/11 00:52:19;;;;;;;;;;;;;;;20.13;63.49;98957.03;3166555;28;20290;-67
2023/06/11 00:53:52;;;;;;;;;;;;;;;20.13;63.67;98959.66;3163406;28;19928;-67
2023/06/11 00:55:23;;;;;;;;;;;;;;;20.14;63.30;98961.34;3171497;28;19931;-67
2023/06/11 00:56:57;;;;;;;;;;;;;;;20.15;63.40;98963.00;3171467;28;19924;-67
2023/06/11 00:58:29;;;;;;;;;;;;;;;20.17;63.40;98968.97;3171470;28;19938;-67
2023/06/11 01:00:00;;;;;;;;;;;;;;;20.14;63.47;98969.28;3171286;28;20026;-67
2023/06/11 01:01:33;;;;;;;;;;;;;;;20.14;63.34;98968.41;3171209;28;19928;-66
2023/06/11 01:03:07;;;;;;;;;;;;;;;20.14;63.31;98973.72;3171638;28;20344;-67
2023/06/11 01:04:40;;;;;;;;;;;;;;;20.14;63.36;98974.56;3171291;28;19945;-67
2023/06/11 01:06:17;;;;;;;;;;;;;;;20.15;63.37;98972.75;3171206;28;19928;-68
2023/06/11 01:07:51;;;;;;;;;;;;;;;20.16;62.97;98972.59;3158612;28;19928;-66
2023/06/11 01:09:23;;;;;;;;;;;;;;;20.17;62.99;98974.25;3161587;28;19990;-68
2023/06/11 01:10:57;;;;;;;;;;;;;;;20.18;63.10;98980.38;3171013;28;19952;-67
2023/06/11 01:12:30;;;;;;;;;;;;;;;20.19;62.97;98969.63;3171414;28;19930;-68
2023/06/11 01:14:01;;;;;;;;;;;;;;;20.20;62.90;98978.38;3171143;28;19928;-67
2023/06/11 01:15:33;;;;;;;;;;;;;;;20.19;62.80;98969.63;3171092;28;19923;-67
2023/06/11 01:17:07;;;;;;;;;;;;;;;20.20;62.97;98975.75;3171379;28;19924;-67
2023/06/11 01:18:40;;;;;;;;;;;;;;;20.19;62.77;98966.16;3170983;28;19924;-67
2023/06/11 01:20:14;;;;;;;;;;;;;;;20.17;63.00;98960.19;3171233;28;19927;-67
2023/06/11 01:21:50;;;;;;;;;;;;;;;20.15;63.06;98967.47;3170901;28;19923;-67
2023/06/11 01:23:25;;;;;;;;;;;;;;;20.10;63.19;98965.25;3166216;28;19938;-67
2023/06/11 01:25:16;;;;;;;;;;;;;;;20.05;63.23;98958.75;3171009;28;20432;-67
2023/06/11 01:26:55;;;;;;;;;;;;;;;20.03;63.45;98963.38;3170894;28;19931;-68
2023/06/11 01:28:31;;;;;;;;;;;;;;;19.98;63.70;98966.47;3168047;28;20022;-68
2023/06/11 01:30:05;;;;;;;;;;;;;;;19.95;63.83;98970.22;3171381;28;19927;-68
2023/06/11 01:31:41;;;;;;;;;;;;;;;19.95;63.93;98964.13;3171012;28;19928;-68
2023/06/11 01:33:13;;;;;;;;;;;;;;;19.94;64.13;98973.84;3170569;28;19959;-68
2023/06/11 01:34:45;;;;;;;;;;;;;;;19.95;64.01;98974.69;3167303;28;19967;-67
2023/06/11 01:36:17;;;;;;;;;;;;;;;19.94;63.93;98970.41;3168698;28;19930;-68
2023/06/11 01:37:55;;;;;;;;;;;;;;;19.95;63.78;98974.69;3168653;28;19924;-67
2023/06/11 01:39:26;;;;;;;;;;;;;;;19.96;63.73;98977.16;3167077;28;19928;-67
2023/06/11 01:40:58;;;;;;;;;;;;;;;19.98;63.69;98982.31;3165781;28;19934;-68
2023/06/11 01:42:30;;;;;;;;;;;;;;;20.00;63.58;98977.72;3165261;28;20673;-67
2023/06/11 01:44:03;;;;;;;;;;;;;;;20.02;63.66;98985.47;3165587;28;19928;-67
2023/06/11 01:45:36;;;;;;;;;;;;;;;20.02;63.43;98975.75;3165164;28;19927;-68
2023/06/11 01:47:08;;;;;;;;;;;;;;;20.03;63.45;98985.34;3165866;28;20050;-68
2023/06/11 01:48:40;;;;;;;;;;;;;;;20.03;63.48;98980.06;3165615;28;20377;-67
2023/06/11 01:50:11;;;;;;;;;;;;;;;19.99;63.65;98982.19;3165515;28;19927;-67
2023/06/11 01:51:42;;;;;;;;;;;;;;;19.98;63.78;98982.31;3165475;28;19928;-69
2023/06/11 01:53:13;;;;;;;;;;;;;;;19.97;63.63;98980.66;3152560;28;19982;-67
2023/06/11 01:54:45;;;;;;;;;;;;;;;19.95;63.62;98982.63;3164373;28;20360;-69
2023/06/11 01:56:17;;;;;;;;;;;;;;;19.93;63.85;98984.56;3165390;28;20926;-67
2023/06/11 01:57:48;;;;;;;;;;;;;;;19.91;63.74;98978.63;3165085;28;20728;-67
2023/06/11 01:59:21;;;;;;;;;;;;;;;19.89;63.73;98991.13;3165602;28;19932;-66
2023/06/11 02:00:53;;;;;;;;;;;;;;;19.87;64.00;98987.81;3165474;28;19932;-66
2023/06/11 02:02:23;;;;;;;;;;;;;;;19.87;63.74;98990.44;3165390;28;19980;-67
2023/06/11 02:03:55;;;;;;;;;;;;;;;19.86;63.73;98994.91;3165583;28;19988;-67
2023/06/11 02:05:27;;;;;;;;;;;;;;;19.86;63.79;98991.44;3165145;28;20482;-67
2023/06/11 02:06:57;;;;;;;;;;;;;;;19.86;63.85;98997.53;3161526;28;20123;-67
2023/06/11 02:08:29;;;;;;;;;;;;;;;19.86;63.71;98997.53;3154399;28;20265;-67
2023/06/11 02:10:00;;;;;;;;;;;;;;;19.85;63.42;98995.91;3157252;28;19943;-67
2023/06/11 02:11:31;;;;;;;;;;;;;;;19.84;63.57;98988.94;3164505;28;20431;-67
2023/06/11 02:13:03;;;;;;;;;;;;;;;19.85;63.52;98989.78;3165671;28;19980;-67
2023/06/11 02:14:36;;;;;;;;;;;;;;;19.84;63.46;98994.22;3165154;28;19928;-67
2023/06/11 02:16:08;;;;;;;;;;;;;;;19.85;63.53;98989.78;3165413;28;19934;-67
2023/06/11 02:17:39;;;;;;;;;;;;;;;19.83;63.58;98991.72;3165532;28;19932;-66
2023/06/11 02:19:11;;;;;;;;;;;;;;;19.80;63.73;98995.50;3165258;28;20313;-69
2023/06/11 02:20:42;;;;;;;;;;;;;;;19.81;63.61;99001.59;3165571;28;19927;-68
2023/06/11 02:22:13;;;;;;;;;;;;;;;19.81;63.69;98996.31;3161374;28;20405;-68
2023/06/11 02:23:45;;;;;;;;;;;;;;;19.81;63.56;98998.97;3163631;28;19991;-68
2023/06/11 02:25:15;;;;;;;;;;;;;;;19.78;63.52;98995.63;3165457;28;19927;-68
2023/06/11 02:26:47;;;;;;;;;;;;;;;19.77;63.58;98996.63;3165357;28;19962;-68
2023/06/11 02:28:19;;;;;;;;;;;;;;;19.75;63.73;98997.75;3165336;28;20376;-68
2023/06/11 02:29:51;;;;;;;;;;;;;;;19.72;63.81;98993.56;3165195;28;19934;-68
2023/06/11 02:31:22;;;;;;;;;;;;;;;19.72;63.81;99000.69;3158531;28;19932;-67
2023/06/11 02:32:54;;;;;;;;;;;;;;;19.70;63.71;99000.84;3159874;28;19957;-68
2023/06/11 02:34:24;;;;;;;;;;;;;;;19.68;64.02;98997.50;3165105;28;19984;-68
2023/06/11 02:35:56;;;;;;;;;;;;;;;19.66;63.79;99001.25;3165070;28;20007;-68
2023/06/11 02:37:27;;;;;;;;;;;;;;;19.63;63.94;98991.78;3163333;28;19934;-68
2023/06/11 02:38:58;;;;;;;;;;;;;;;19.62;63.93;98998.06;3165301;28;19931;-68
2023/06/11 02:40:30;;;;;;;;;;;;;;;19.61;63.97;98999.06;3165045;28;20068;-68
2023/06/11 02:42:02;;;;;;;;;;;;;;;19.60;64.19;98999.19;3165144;28;19932;-67
2023/06/11 02:43:34;;;;;;;;;;;;;;;19.56;64.34;98996.00;3165297;28;20014;-68
2023/06/11 02:45:06;;;;;;;;;;;;;;;19.55;64.23;98999.59;3165424;28;19976;-68
2023/06/11 02:46:38;;;;;;;;;;;;;;;19.53;64.03;98998.94;3165151;28;19928;-68
2023/06/11 02:48:09;;;;;;;;;;;;;;;19.52;64.49;99000.75;3165024;28;19932;-67
2023/06/11 02:49:40;;;;;;;;;;;;;;;19.50;64.37;99005.34;3165143;28;19928;-68
2023/06/11 02:51:12;;;;;;;;;;;;;;;19.47;64.54;99002.16;3165218;28;19928;-68
2023/06/11 02:52:43;;;;;;;;;;;;;;;19.44;64.55;98998.00;3156920;28;19932;-68
2023/06/11 02:54:15;;;;;;;;;;;;;;;19.43;64.60;99003.41;3160752;28;19966;-68
2023/06/11 02:55:47;;;;;;;;;;;;;;;19.40;64.63;99003.72;3165257;28;19980;-67
2023/06/11 02:57:17;;;;;;;;;;;;;;;19.37;64.86;99001.34;3164998;28;20417;-67
2023/06/11 02:58:49;;;;;;;;;;;;;;;19.33;64.88;98998.19;3165239;28;20064;-67
2023/06/11 03:00:22;;;;;;;;;;;;;;;19.33;64.94;99006.09;3165325;28;19927;-67
2023/06/11 03:01:53;;;;;;;;;;;;;;;19.33;64.83;99006.94;3165114;28;19997;-67
2023/06/11 03:03:25;;;;;;;;;;;;;;;19.33;64.93;99006.94;3165098;28;20026;-67
2023/06/11 03:04:56;;;;;;;;;;;;;;;19.33;64.84;99012.22;3165739;28;19992;-67
2023/06/11 03:06:27;;;;;;;;;;;;;;;19.33;64.85;99017.50;3167239;28;19977;-67
2023/06/11 03:07:59;;;;;;;;;;;;;;;19.36;64.71;99010.25;3158187;28;19981;-66
2023/06/11 03:09:30;;;;;;;;;;;;;;;19.35;64.93;99013.91;3155055;28;20380;-67
2023/06/11 03:11:02;;;;;;;;;;;;;;;19.32;64.73;99010.56;3155000;28;19927;-67
2023/06/11 03:12:33;;;;;;;;;;;;;;;19.33;64.92;99012.22;3164545;28;19939;-67
2023/06/11 03:14:04;;;;;;;;;;;;;;;19.32;64.73;99015.00;3165823;28;20388;-66
2023/06/11 03:15:37;;;;;;;;;;;;;;;19.33;64.69;99020.13;3167240;28;20014;-66
2023/06/11 03:17:09;;;;;;;;;;;;;;;19.34;64.89;99015.69;3167434;28;19928;-67
2023/06/11 03:18:39;;;;;;;;;;;;;;;19.36;64.64;99016.38;3167634;28;19927;-66
2023/06/11 03:20:12;;;;;;;;;;;;;;;19.39;64.64;99015.25;3166831;28;19993;-66
2023/06/11 03:21:42;;;;;;;;;;;;;;;19.40;64.94;99009.00;3167192;28;19943;-67
2023/06/11 03:23:14;;;;;;;;;;;;;;;19.38;64.77;99013.59;3161674;28;20018;-66
2023/06/11 03:24:46;;;;;;;;;;;;;;;19.25;64.75;99001.53;3167519;28;19928;-67
2023/06/11 03:26:17;;;;;;;;;;;;;;;19.30;65.18;99016.94;3167229;28;20329;-67
2023/06/11 03:27:49;;;;;;;;;;;;;;;19.29;65.30;99016.13;3163585;28;20400;-67
2023/06/11 03:29:20;;;;;;;;;;;;;;;19.31;65.10;99019.47;3167359;28;20449;-66
2023/06/11 03:30:53;;;;;;;;;;;;;;;19.35;64.92;99016.53;3167371;28;19936;-67
2023/06/11 03:32:24;;;;;;;;;;;;;;;19.38;64.88;99016.25;3167309;28;19927;-67
2023/06/11 03:33:56;;;;;;;;;;;;;;;19.40;65.01;99006.34;3166933;28;19942;-66
2023/06/11 03:35:28;;;;;;;;;;;;;;;19.42;64.88;99020.25;3166761;28;20376;-66
2023/06/11 03:36:59;;;;;;;;;;;;;;;19.42;65.08;99015.78;3165422;28;19928;-66
2023/06/11 03:38:30;;;;;;;;;;;;;;;19.41;65.00;99013.31;3166966;28;19927;-66
2023/06/11 03:40:01;;;;;;;;;;;;;;;19.42;64.88;99022.88;3166876;28;20818;-66
2023/06/11 03:41:33;;;;;;;;;;;;;;;19.44;64.75;99023.59;3167154;28;20502;-67
2023/06/11 03:43:03;;;;;;;;;;;;;;;19.44;64.75;99019.13;3171666;28;19928;-67
2023/06/11 03:44:35;;;;;;;;;;;;;;;19.47;64.69;99018.00;3172129;28;20018;-67
2023/06/11 03:46:08;;;;;;;;;;;;;;;19.47;64.72;99021.47;3172261;28;19927;-66
2023/06/11 03:47:39;;;;;;;;;;;;;;;19.47;64.69;99013.56;3172387;28;20374;-69
2023/06/11 03:49:11;;;;;;;;;;;;;;;19.49;64.79;99010.75;3172242;28;19927;-67
2023/06/11 03:50:42;;;;;;;;;;;;;;;19.50;64.73;99015.91;3172187;28;20360;-68
2023/06/11 03:52:13;;;;;;;;;;;;;;;19.54;64.50;99011.16;3168492;28;20004;-69
2023/06/11 03:53:45;;;;;;;;;;;;;;;19.58;64.46;99014.34;3163498;28;19931;-67
2023/06/11 03:55:16;;;;;;;;;;;;;;;19.60;64.46;99012.38;3172308;28;19938;-66
2023/06/11 03:56:48;;;;;;;;;;;;;;;19.59;64.58;99010.75;3172035;28;19931;-67
2023/06/11 03:58:19;;;;;;;;;;;;;;;19.59;64.67;99010.75;3171194;28;19924;-67
2023/06/11 03:59:51;;;;;;;;;;;;;;;19.60;64.52;99021.13;3171843;28;19981;-67
2023/06/11 04:01:24;;;;;;;;;;;;;;;19.61;64.63;99014.91;3171939;28;19923;-66
2023/06/11 04:02:55;;;;;;;;;;;;;;;19.63;64.61;99015.56;3171925;28;19924;-67
2023/06/11 04:04:27;;;;;;;;;;;;;;;19.66;64.50;99015.31;3172032;28;20316;-67
2023/06/11 04:05:58;;;;;;;;;;;;;;;19.65;64.77;99011.00;3172334;28;19985;-67
2023/06/11 04:07:29;;;;;;;;;;;;;;;19.65;64.82;99021.56;3165901;28;20019;-67
2023/06/11 04:09:01;;;;;;;;;;;;;;;19.67;64.59;99018.78;3166788;28;19932;-67
2023/06/11 04:10:33;;;;;;;;;;;;;;;19.70;64.69;99019.34;3172226;28;20329;-67
2023/06/11 04:12:05;;;;;;;;;;;;;;;19.63;64.72;98999.72;3171978;28;19927;-67
2023/06/11 04:13:37;;;;;;;;;;;;;;;19.76;64.83;99020.56;3171971;28;19927;-66
2023/06/11 04:15:08;;;;;;;;;;;;;;;19.80;64.69;99016.63;3172048;28;19924;-67
2023/06/11 04:16:41;;;;;;;;;;;;;;;19.84;64.58;99014.53;3170407;28;20078;-67
2023/06/11 04:18:12;;;;;;;;;;;;;;;19.87;64.55;99014.22;3171897;28;19930;-67
2023/06/11 04:19:43;;;;;;;;;;;;;;;19.87;64.87;99008.94;3172116;28;19928;-67
2023/06/11 04:21:14;;;;;;;;;;;;;;;19.87;64.85;99009.75;3171877;28;19938;-67
2023/06/11 04:22:46;;;;;;;;;;;;;;;19.86;64.85;99010.75;3165558;28;20392;-67
2023/06/11 04:24:18;;;;;;;;;;;;;;;19.89;64.72;99013.09;3162814;28;19996;-67
2023/06/11 04:25:49;;;;;;;;;;;;;;;19.90;64.87;99008.66;3172025;28;19924;-67
2023/06/11 04:27:20;;;;;;;;;;;;;;;19.93;64.80;99011.81;3172211;28;20373;-67
2023/06/11 04:28:52;;;;;;;;;;;;;;;19.96;64.73;99006.22;3171912;28;19924;-67
2023/06/11 04:30:24;;;;;;;;;;;;;;;19.99;64.64;99013.03;3171818;28;19928;-67
2023/06/11 04:32:03;;;;;;;;;;;;;;;20.03;64.52;99006.50;3171439;28;19932;-67
2023/06/11 04:33:36;;;;;;;;;;;;;;;20.09;64.61;99013.00;3171994;28;19928;-67
2023/06/11 04:35:09;;;;;;;;;;;;;;;20.15;64.39;99013.22;3171534;28;19977;-67
2023/06/11 04:36:41;;;;;;;;;;;;;;;20.20;64.11;99010.97;3171508;28;19930;-67
2023/06/11 04:38:14;;;;;;;;;;;;;;;20.26;64.28;99012.19;3168669;28;19932;-67
2023/06/11 04:39:45;;;;;;;;;;;;;;;20.32;63.82;99008.94;3171608;28;20004;-68
2023/06/11 04:41:17;;;;;;;;;;;;;;;20.36;63.87;99014.75;3171525;28;19924;-68
2023/06/11 04:42:48;;;;;;;;;;;;;;;20.41;63.81;99007.19;3171495;28;19935;-67
2023/06/11 04:44:20;;;;;;;;;;;;;;;20.42;63.56;99012.31;3171569;28;19924;-67
2023/06/11 04:45:55;;;;;;;;;;;;;;;20.44;63.68;99012.19;3171761;28;20002;-67
2023/06/11 04:47:29;;;;;;;;;;;;;;;20.47;63.50;99017.16;3171485;28;20429;-67
2023/06/11 04:49:03;;;;;;;;;;;;;;;20.49;63.47;99014.38;3171592;28;19927;-67
2023/06/11 04:50:37;;;;;;;;;;;;;;;20.50;63.40;99014.22;3171082;28;19950;-67
2023/06/11 04:52:08;;;;;;;;;;;;;;;20.53;63.39;99011.31;3168498;28;19943;-68
2023/06/11 04:53:39;;;;;;;;;;;;;;;20.56;63.45;99015.47;3161679;28;19932;-68
2023/06/11 04:55:12;;;;;;;;;;;;;;;20.59;63.13;99012.50;3171241;28;19928;-68
2023/06/11 04:56:43;;;;;;;;;;;;;;;20.62;63.22;99010.38;3171366;28;19946;-67
2023/06/11 04:58:15;;;;;;;;;;;;;;;20.64;63.04;99011.03;3171357;28;20392;-67
2023/06/11 04:59:49;;;;;;;;;;;;;;;20.71;62.89;99015.75;3171574;28;19935;-67
2023/06/11 05:01:21;;;;;;;;;;;;;;;20.77;62.91;99015.97;3171302;28;20443;-67
2023/06/11 05:02:54;;;;;;;;;;;;;;;20.83;62.59;99025.09;3171649;28;19961;-68
2023/06/11 05:04:25;;;;;;;;;;;;;;;20.88;62.52;99014.88;3171450;28;19927;-67
2023/06/11 05:05:57;;;;;;;;;;;;;;;20.93;62.49;99020.53;3171312;28;19942;-67
2023/06/11 05:07:29;;;;;;;;;;;;;;;20.97;62.28;99018.41;3165197;28;20473;-67
2023/06/11 05:09:00;;;;;;;;;;;;;;;21.01;62.12;99017.94;3159919;28;19985;-67
2023/06/11 05:10:32;;;;;;;;;;;;;;;21.07;62.12;99021.81;3166979;28;19980;-67
2023/06/11 05:12:03;;;;;;;;;;;;;;;21.09;62.00;99022.47;3170861;28;19924;-67
2023/06/11 05:13:37;;;;;;;;;;;;;;;21.10;61.83;99024.13;3171048;28;19934;-67
2023/06/11 05:15:09;;;;;;;;;;;;;;;21.09;61.92;99022.47;3171141;28;19931;-67
2023/06/11 05:16:40;;;;;;;;;;;;;;;21.08;61.99;99023.44;3171092;28;19923;-67
2023/06/11 05:18:13;;;;;;;;;;;;;;;21.08;61.94;99026.94;3171168;28;19944;-68
2023/06/11 05:19:45;;;;;;;;;;;;;;;21.11;62.07;99026.63;3168405;28;19973;-67
2023/06/11 05:21:17;;;;;;;;;;;;;;;21.12;61.64;99023.00;3163958;28;19928;-70
2023/06/11 05:22:53;;;;;;;;;;;;;;;21.14;61.91;99028.94;3164725;28;19985;-68
2023/06/11 05:24:28;;;;;;;;;;;;;;;21.17;61.92;99025.16;3171204;28;19927;-67
2023/06/11 05:26:08;;;;;;;;;;;;;;;21.22;61.68;99027.34;3171063;28;20311;-67
2023/06/11 05:27:40;;;;;;;;;;;;;;;21.26;61.48;99026.03;3171235;28;19938;-68
2023/06/11 05:29:11;;;;;;;;;;;;;;;21.27;61.48;99030.38;3171079;28;19985;-67
2023/06/11 05:30:43;;;;;;;;;;;;;;;21.28;61.65;99019.59;3170937;28;19924;-68
2023/06/11 05:32:15;;;;;;;;;;;;;;;21.30;61.52;99019.47;3170991;28;19924;-68
2023/06/11 05:33:48;;;;;;;;;;;;;;;21.33;61.29;99019.97;3171155;28;19928;-68
2023/06/11 05:35:20;;;;;;;;;;;;;;;21.39;61.38;99028.31;3171005;28;19944;-67
2023/06/11 05:36:51;;;;;;;;;;;;;;;21.41;60.99;99023.69;3169974;28;19928;-68
2023/06/11 05:38:23;;;;;;;;;;;;;;;21.46;61.24;99027.50;3169953;28;20027;-67
2023/06/11 05:39:55;;;;;;;;;;;;;;;21.49;60.97;99024.56;3171160;28;19928;-67
2023/06/11 05:41:27;;;;;;;;;;;;;;;21.52;60.73;99023.41;3170925;28;19931;-67
2023/06/11 05:42:58;;;;;;;;;;;;;;;21.58;61.06;99031.53;3171253;28;19927;-67
2023/06/11 05:44:30;;;;;;;;;;;;;;;21.65;60.82;99034.41;3170829;28;20407;-67
2023/06/11 05:46:01;;;;;;;;;;;;;;;21.73;60.54;99037.06;3170847;28;19927;-67
2023/06/11 05:47:34;;;;;;;;;;;;;;;21.82;60.36;99027.34;3171089;28;19984;-68
2023/06/11 05:49:07;;;;;;;;;;;;;;;21.87;60.31;99025.06;3170907;28;19927;-68
2023/06/11 05:50:39;;;;;;;;;;;;;;;21.91;60.49;99021.06;3170322;28;20003;-67
2023/06/11 05:52:10;;;;;;;;;;;;;;;21.96;60.03;99023.25;3167521;28;19924;-68
2023/06/11 05:53:41;;;;;;;;;;;;;;;22.04;60.07;99025.94;3160841;28;20321;-67
2023/06/11 05:55:12;;;;;;;;;;;;;;;22.13;60.01;99027.63;3170716;28;19945;-67
2023/06/11 05:56:44;;;;;;;;;;;;;;;22.21;59.63;99026.81;3170761;28;19923;-68
2023/06/11 05:58:16;;;;;;;;;;;;;;;22.30;59.61;99025.84;3167176;28;19935;-67
2023/06/11 05:59:47;;;;;;;;;;;;;;;22.39;59.43;99026.69;3170946;28;19924;-67
2023/06/11 06:01:18;;;;;;;;;;;;;;;22.47;59.37;99026.69;3170880;28;19923;-68
2023/06/11 06:02:50;;;;;;;;;;;;;;;22.55;59.39;99031.19;3170815;28;19927;-67
2023/06/11 06:04:23;;;;;;;;;;;;;;;22.61;58.89;99022.56;3170690;28;19980;-67
2023/06/11 06:05:55;;;;;;;;;;;;;;;22.68;59.06;99031.50;3170685;28;19927;-68
2023/06/11 06:07:26;;;;;;;;;;;;;;;22.75;58.70;99021.91;3165006;28;19936;-68
2023/06/11 06:08:59;;;;;;;;;;;;;;;22.81;58.73;99026.56;3165878;28;19923;-68
2023/06/11 06:10:30;;;;;;;;;;;;;;;22.87;58.67;99025.88;3168875;28;19924;-67
2023/06/11 06:12:02;;;;;;;;;;;;;;;22.94;58.23;99018.06;3170573;28;19927;-68
2023/06/11 06:13:32;;;;;;;;;;;;;;;23.00;58.11;99030.72;3170717;28;19924;-68
2023/06/11 06:15:04;;;;;;;;;;;;;;;23.06;58.31;99030.03;3170694;28;19977;-68
2023/06/11 06:16:36;;;;;;;;;;;;;;;23.08;58.03;99024.56;3166895;28;19939;-68
2023/06/11 06:18:08;;;;;;;;;;;;;;;23.09;57.64;99028.88;3170730;28;19928;-67
2023/06/11 06:19:41;;;;;;;;;;;;;;;23.12;57.39;99029.34;3170880;28;19932;-67
2023/06/11 06:21:12;;;;;;;;;;;;;;;23.16;57.67;99029.88;3170733;28;20382;-67
2023/06/11 06:22:44;;;;;;;;;;;;;;;23.21;57.39;99030.19;3164102;28;19924;-67
2023/06/11 06:24:15;;;;;;;;;;;;;;;23.28;57.25;99035.63;3170357;28;20403;-68
2023/06/11 06:25:47;;;;;;;;;;;;;;;23.32;57.36;99029.81;3170762;28;19924;-67
2023/06/11 06:27:19;;;;;;;;;;;;;;;23.42;57.11;99026.16;3170657;28;19927;-67
2023/06/11 06:28:52;;;;;;;;;;;;;;;23.50;56.75;99032.25;3170486;28;19924;-67
2023/06/11 06:30:24;;;;;;;;;;;;;;;23.56;56.88;99028.09;3170568;28;20068;-68
2023/06/11 06:31:55;;;;;;;;;;;;;;;23.61;56.50;99025.75;3170438;28;20324;-67
2023/06/11 06:33:30;;;;;;;;;;;;;;;23.70;56.24;99030.06;3170549;28;19924;-68
2023/06/11 06:35:03;;;;;;;;;;;;;;;23.77;55.94;99027.56;3170478;28;20027;-68
2023/06/11 06:36:35;;;;;;;;;;;;;;;23.82;55.44;99027.88;3170560;28;19928;-68
2023/06/11 06:38:06;;;;;;;;;;;;;;;23.87;55.61;99024.66;3167660;28;19932;-68
2023/06/11 06:39:38;;;;;;;;;;;;;;;23.93;55.17;99016.84;3170802;28;20474;-68
2023/06/11 06:41:10;;;;;;;;;;;;;;;24.03;55.27;99024.59;3172941;28;20419;-68
2023/06/11 06:42:41;;;;;;;;;;;;;;;24.04;54.79;99023.59;3173301;28;20381;-68
2023/06/11 06:44:13;;;;;;;;;;;;;;;24.09;54.59;99020.41;3172873;28;20355;-68
2023/06/11 06:45:44;;;;;;;;;;;;;;;24.10;54.44;99025.56;3173050;28;19923;-68
2023/06/11 06:47:16;;;;;;;;;;;;;;;24.13;54.34;99019.88;3173242;28;19931;-68
2023/06/11 06:48:47;;;;;;;;;;;;;;;24.20;54.40;99020.84;3172840;28;20329;-68
2023/06/11 06:50:20;;;;;;;;;;;;;;;24.24;54.46;99024.81;3172802;28;20328;-68
2023/06/11 06:51:52;;;;;;;;;;;;;;;24.33;54.38;99025.59;3172136;28;20005;-68
2023/06/11 06:53:23;;;;;;;;;;;;;;;24.39;54.21;99024.88;3165397;28;20312;-67
2023/06/11 06:54:55;;;;;;;;;;;;;;;24.46;53.70;99022.34;3173181;28;20473;-67
2023/06/11 06:56:26;;;;;;;;;;;;;;;24.51;54.04;99025.31;3164008;28;20316;-67
2023/06/11 06:57:58;;;;;;;;;;;;;;;24.55;53.72;99013.31;3172795;28;19975;-67
2023/06/11 06:59:29;;;;;;;;;;;;;;;24.56;53.50;99017.63;3173120;28;19931;-67
2023/06/11 07:01:00;;;;;;;;;;;;;;;24.56;53.10;99022.97;3172511;28;19923;-67
2023/06/11 07:02:32;;;;;;;;;;;;;;;24.57;52.96;99019.28;3172819;28;19930;-67
2023/06/11 07:04:03;;;;;;;;;;;;;;;24.61;52.85;99017.94;3172880;28;19927;-67
2023/06/11 07:05:36;;;;;;;;;;;;;;;24.65;52.80;99021.06;3172102;28;19924;-66
2023/06/11 07:07:08;;;;;;;;;;;;;;;24.71;52.57;99013.19;3169501;28;19977;-67
2023/06/11 07:08:40;;;;;;;;;;;;;;;24.78;52.52;99015.94;3165925;28;19924;-67
2023/06/11 07:10:12;;;;;;;;;;;;;;;24.85;51.95;99022.22;3172810;28;19923;-67
2023/06/11 07:11:44;;;;;;;;;;;;;;;24.88;51.62;99013.88;3172219;28;19931;-67
2023/06/11 07:13:16;;;;;;;;;;;;;;;24.95;51.71;99017.47;3164634;28;20027;-66
2023/06/11 07:14:48;;;;;;;;;;;;;;;25.07;51.99;99022.34;3172586;28;19996;-67
2023/06/11 07:16:20;;;;;;;;;;;;;;;25.19;51.79;99019.09;3172522;28;20424;-67
2023/06/11 07:17:51;;;;;;;;;;;;;;;25.33;51.67;99016.63;3172478;28;19928;-67
2023/06/11 07:19:23;;;;;;;;;;;;;;;25.48;51.51;99011.28;3172666;28;19924;-68
2023/06/11 07:20:56;;;;;;;;;;;;;;;25.65;50.84;99012.75;3172906;28;19928;-67
2023/06/11 07:22:27;;;;;;;;;;;;;;;25.81;50.69;99012.53;3167610;28;19931;-67
2023/06/11 07:24:04;;;;;;;;;;;;;;;25.95;50.74;99002.91;3172453;28;19923;-68
2023/06/11 07:25:37;;;;;;;;;;;;;;;26.12;50.26;99010.66;3172362;28;19931;-68
2023/06/11 07:27:10;;;;;;;;;;;;;;;26.21;49.84;99002.38;3172583;28;19931;-68
2023/06/11 07:28:41;;;;;;;;;;;;;;;26.35;49.51;99011.31;3172751;28;19927;-68
2023/06/11 07:30:13;;;;;;;;;;;;;;;26.50;49.03;99012.13;3172538;28;20301;-66
2023/06/11 07:31:45;;;;;;;;;;;;;;;26.67;48.98;99007.34;3172613;28;19924;-66
2023/06/11 07:33:19;;;;;;;;;;;;;;;26.86;48.51;99010.34;3172448;28;19927;-69
2023/06/11 07:34:51;;;;;;;;;;;;;;;27.07;48.23;99006.84;3172324;28;20711;-67
2023/06/11 07:36:24;;;;;;;;;;;;;;;27.22;48.03;99002.22;3172266;28;19924;-67
2023/06/11 07:37:56;;;;;;;;;;;;;;;27.37;47.81;99012.81;3172323;28;19931;-67
2023/06/11 07:39:27;;;;;;;;;;;;;;;27.45;47.24;99007.31;3172193;28;19931;-67
2023/06/11 07:41:01;;;;;;;;;;;;;;;27.50;46.96;99006.69;3172446;28;20392;-67
2023/06/11 07:42:32;;;;;;;;;;;;;;;27.58;47.29;99002.00;3172396;28;19924;-67
2023/06/11 07:44:04;;;;;;;;;;;;;;;27.72;46.83;99000.22;3172362;28;19924;-67
2023/06/11 07:45:36;;;;;;;;;;;;;;;27.85;46.75;99000.31;3172473;28;19924;-67
2023/06/11 07:47:08;;;;;;;;;;;;;;;27.97;46.32;99002.41;3172561;28;19923;-67
2023/06/11 07:48:41;;;;;;;;;;;;;;;28.05;46.60;98999.56;3172140;28;19923;-68
2023/06/11 07:50:13;;;;;;;;;;;;;;;28.16;46.24;99000.81;3171976;28;19930;-68
2023/06/11 07:51:46;;;;;;;;;;;;;;;28.22;46.02;99000.84;3170480;28;19931;-68
2023/06/11 07:53:18;;;;;;;;;;;;;;;28.30;45.98;99003.31;3162558;28;20012;-67
2023/06/11 07:54:50;;;;;;;;;;;;;;;28.40;45.58;99000.25;3163106;28;20303;-68
2023/06/11 07:56:20;;;;;;;;;;;;;;;28.50;44.67;99002.56;3171643;28;20405;-68
2023/06/11 07:57:52;;;;;;;;;;;;;;;28.53;43.98;99004.81;3172384;28;19930;-68
2023/06/11 07:59:24;;;;;;;;;;;;;;;28.55;44.29;99008.13;3172265;28;19924;-68